Time;durP1;ratioP1;P1;durP2;ratioP2;P2;SDS_P1;SDS_P2;PMS_P1;PMS_P2;Temp;Humidity;BMP_temperature;BMP_pressure;BME280_temperature;BME280_humidity;BME280_pressure;Samples;Min_cycle;Max_cycle;Signal;HPM_P1;HPM_P2
2023/01/16 00:01:14;;;;;;;4.30;3.28;;;3.40;99.90;;;;;;4967054;28;20105;-85
2023/01/16 00:03:39;;;;;;;5.15;3.22;;;4.80;99.90;;;;;;4964715;28;20053;-87
2023/01/16 00:06:05;;;;;;;6.90;3.25;;;3.20;99.90;;;;;;4963155;28;20046;-86
2023/01/16 00:08:31;;;;;;;7.63;3.13;;;4.70;99.90;;;;;;4970717;28;20089;-88
2023/01/16 00:10:57;;;;;;;7.63;3.00;;;4.20;99.90;;;;;;4954259;28;20392;-87
2023/01/16 00:13:22;;;;;;;9.40;3.55;;;3.00;99.90;;;;;;4969430;28;20126;-86
2023/01/16 00:15:50;;;;;;;6.22;3.30;;;3.20;99.90;;;;;;4953939;28;20050;-86
2023/01/16 00:18:17;;;;;;;5.75;3.17;;;3.10;99.90;;;;;;4955746;28;20042;-87
2023/01/16 00:20:43;;;;;;;6.82;3.10;;;3.10;99.90;;;;;;4972449;28;20046;-85
2023/01/16 00:23:10;;;;;;;7.75;3.67;;;2.90;99.90;;;;;;4971757;28;20120;-87
2023/01/16 00:25:41;;;;;;;6.28;3.08;;;2.30;99.90;;;;;;4954705;28;20419;-88
2023/01/16 00:28:07;;;;;;;5.55;3.10;;;3.20;99.90;;;;;;4968952;28;20133;-87
2023/01/16 00:30:34;;;;;;;6.95;3.22;;;3.20;99.90;;;;;;4957518;28;20055;-87
2023/01/16 00:33:00;;;;;;;5.63;3.28;;;3.20;99.90;;;;;;4939634;28;20082;-85
2023/01/16 00:35:26;;;;;;;8.52;3.40;;;3.30;99.90;;;;;;4970141;28;20089;-86
2023/01/16 00:37:52;;;;;;;8.05;3.47;;;2.80;99.90;;;;;;4970043;28;20425;-87
2023/01/16 00:40:18;;;;;;;7.60;3.25;;;4.00;99.90;;;;;;4953978;28;20042;-87
2023/01/16 00:42:44;;;;;;;4.80;3.28;;;3.50;99.90;;;;;;4970802;28;20046;-87
2023/01/16 00:45:10;;;;;;;6.57;2.97;;;4.60;99.90;;;;;;4935888;28;20043;-85
2023/01/16 00:47:35;;;;;;;6.30;3.47;;;3.60;99.90;;;;;;4951818;28;20054;-85
2023/01/16 00:50:02;;;;;;;8.07;3.50;;;3.60;99.90;;;;;;4966002;28;20205;-87
2023/01/16 00:52:27;;;;;;;8.38;2.92;;;4.00;99.90;;;;;;4954720;28;20050;-86
2023/01/16 00:54:53;;;;;;;6.80;3.28;;;3.50;99.90;;;;;;4953769;28;20049;-86
2023/01/16 00:57:18;;;;;;;5.30;3.00;;;3.50;99.90;;;;;;4949676;28;20054;-86
2023/01/16 00:59:44;;;;;;;6.70;3.00;;;3.50;99.90;;;;;;4951005;28;20390;-85
2023/01/16 01:02:10;;;;;;;5.38;2.63;;;3.70;99.90;;;;;;4951421;28;20737;-86
2023/01/16 01:04:36;;;;;;;6.45;3.25;;;3.20;99.90;;;;;;4952578;28;20047;-86
2023/01/16 01:07:01;;;;;;;5.00;2.83;;;3.30;99.90;;;;;;4935484;28;20054;-87
2023/01/16 01:09:27;;;;;;;5.15;2.60;;;3.40;99.90;;;;;;4935375;28;20051;-86
2023/01/16 01:11:52;;;;;;;8.60;2.80;;;3.30;99.90;;;;;;4949823;28;20043;-86
2023/01/16 01:14:18;;;;;;;4.63;3.00;;;3.30;99.90;;;;;;4934744;28;20117;-87
2023/01/16 01:16:44;;;;;;;5.43;2.38;;;3.40;99.90;;;;;;4965734;28;20042;-86
2023/01/16 01:19:12;;;;;;;6.50;2.88;;;3.20;99.90;;;;;;4945095;28;20129;-86
2023/01/16 01:21:37;;;;;;;6.55;3.03;;;3.30;99.90;;;;;;4950467;28;20047;-86
2023/01/16 01:24:03;;;;;;;5.70;2.83;;;3.30;99.90;;;;;;4970317;28;20092;-86
2023/01/16 01:26:29;;;;;;;8.45;2.97;;;3.30;99.90;;;;;;4944971;28;20412;-87
2023/01/16 01:28:54;;;;;;;5.30;2.60;;;4.40;99.90;;;;;;4963882;28;20545;-87
2023/01/16 01:31:20;;;;;;;5.20;2.72;;;3.20;99.90;;;;;;4953954;28;20517;-86
2023/01/16 01:33:46;;;;;;;5.88;2.97;;;3.20;99.90;;;;;;4946856;28;20034;-86
2023/01/16 01:36:11;;;;;;;4.55;2.45;;;3.10;99.90;;;;;;4949932;28;20101;-86
2023/01/16 01:38:37;;;;;;;6.53;2.95;;;3.20;99.90;;;;;;4974492;28;20050;-86
2023/01/16 01:41:03;;;;;;;7.15;3.33;;;3.20;99.90;;;;;;4973647;28;20103;-86
2023/01/16 01:43:48;;;;;;;9.75;3.35;;;3.30;99.90;;;;;;4957671;28;20077;-86
2023/01/16 01:46:27;;;;;;;6.72;2.75;;;3.40;99.90;;;;;;4972776;28;20077;-86
2023/01/16 01:49:00;;;;;;;12.48;3.13;;;3.40;99.90;;;;;;4964045;28;20509;-86
2023/01/16 01:51:28;;;;;;;;;;;3.40;99.90;;;;;;4942794;28;20049;-87
2023/01/16 01:54:20;;;;;;;6.18;2.72;;;3.50;99.90;;;;;;4972270;28;20361;-86
2023/01/16 01:56:51;;;;;;;7.97;2.97;;;3.60;99.90;;;;;;4962268;28;20062;-86
2023/01/16 01:59:29;;;;;;;6.25;3.45;;;3.50;99.90;;;;;;4955448;28;20046;-86
2023/01/16 02:01:55;;;;;;;5.22;2.97;;;3.60;99.90;;;;;;4970642;28;20042;-86
2023/01/16 02:04:25;;;;;;;8.15;2.53;;;3.60;99.90;;;;;;4955996;28;20053;-86
2023/01/16 02:06:55;;;;;;;6.28;2.40;;;3.70;99.90;;;;;;4962843;28;20042;-86
2023/01/16 02:09:23;;;;;;;3.80;3.03;;;3.70;99.90;;;;;;4971580;28;20042;-86
2023/01/16 02:11:54;;;;;;;4.70;2.20;;;3.70;99.90;;;;;;4972798;28;20084;-86
2023/01/16 02:14:21;;;;;;;4.78;3.00;;;3.70;99.90;;;;;;4972395;28;20384;-86
2023/01/16 02:20:16;;;;;;;5.10;2.55;;;3.90;99.90;;;;;;4968193;28;20437;-86
2023/01/16 02:22:54;;;;;;;5.22;2.80;;;3.90;99.90;;;;;;4971841;28;20061;-87
2023/01/16 02:25:28;;;;;;;6.95;2.70;;;4.00;99.90;;;;;;4969992;28;20088;-85
2023/01/16 02:28:25;;;;;;;6.32;2.42;;;4.00;99.90;;;;;;4956527;28;20078;-86
2023/01/16 02:31:03;;;;;;;8.27;2.78;;;4.10;99.90;;;;;;4950409;28;20070;-87
2023/01/16 02:33:41;;;;;;;5.05;2.83;;;4.10;99.90;;;;;;4968806;28;20051;-87
2023/01/16 02:36:38;;;;;;;6.03;2.90;;;4.20;99.90;;;;;;4952048;28;20082;-86
2023/01/16 02:39:38;;;;;;;3.35;2.45;;;4.20;99.90;;;;;;4953620;28;20089;-86
2023/01/16 02:42:24;;;;;;;5.88;3.13;;;4.20;99.90;;;;;;4967762;28;20054;-87
2023/01/16 02:45:03;;;;;;;5.97;2.60;;;4.30;99.90;;;;;;4967472;28;20473;-86
2023/01/16 02:47:45;;;;;;;3.83;2.28;;;4.30;99.90;;;;;;4969149;28;20064;-86
2023/01/16 02:50:29;;;;;;;4.00;2.47;;;4.30;99.90;;;;;;4952493;28;20163;-86
2023/01/16 02:53:00;;;;;;;4.60;2.45;;;4.30;99.90;;;;;;4968549;28;20058;-86
2023/01/16 02:55:33;;;;;;;6.43;3.08;;;4.20;99.90;;;;;;4967300;28;20048;-86
2023/01/16 02:58:05;;;;;;;5.05;2.70;;;4.20;99.90;;;;;;4952312;28;20042;-86
2023/01/16 03:00:33;;;;;;;4.05;2.50;;;4.60;99.90;;;;;;4967759;28;20043;-87
2023/01/16 03:02:59;;;;;;;7.45;3.15;;;4.10;99.90;;;;;;4951566;28;20637;-85
2023/01/16 03:05:26;;;;;;;8.05;3.00;;;4.00;99.90;;;;;;4962532;28;20049;-86
2023/01/16 03:08:18;;;;;;;6.30;3.15;;;4.30;99.90;;;;;;4941937;28;20304;-86
2023/01/16 03:10:58;;;;;;;3.17;2.75;;;3.80;99.90;;;;;;4968478;28;20556;-86
2023/01/16 03:14:01;;;;;;;6.57;3.33;;;3.80;99.90;;;;;;4953534;28;20458;-86
2023/01/16 03:17:15;;;;;;;6.13;3.60;;;3.70;99.90;;;;;;4958065;28;20586;-86
2023/01/16 03:19:43;;;;;;;4.88;3.13;;;3.70;99.90;;;;;;4892468;28;20067;-87
2023/01/16 03:22:30;;;;;;;6.03;3.03;;;3.80;99.90;;;;;;4968640;28;20478;-86
2023/01/16 03:25:17;;;;;;;7.03;3.53;;;3.80;99.90;;;;;;4968084;28;20189;-86
2023/01/16 03:28:04;;;;;;;8.00;3.60;;;3.90;99.90;;;;;;4960456;28;20054;-85
2023/01/16 03:31:00;;;;;;;6.60;3.72;;;4.00;99.90;;;;;;4971194;28;20058;-86
2023/01/16 03:33:52;;;;;;;7.90;3.78;;;4.00;99.90;;;;;;4962235;28;20058;-85
2023/01/16 03:36:23;;;;;;;5.38;3.40;;;4.00;99.90;;;;;;4932880;29;20062;-85
2023/01/16 03:38:51;;;;;;;4.50;3.72;;;4.10;99.90;;;;;;4937811;29;20047;-87
2023/01/16 03:41:21;;;;;;;7.88;4.20;;;4.10;99.90;;;;;;4968077;28;20043;-86
2023/01/16 03:43:54;;;;;;;7.50;4.60;;;4.10;99.90;;;;;;4968382;28;20042;-87
2023/01/16 03:46:26;;;;;;;4.55;3.70;;;4.10;99.90;;;;;;4956813;28;20041;-86
2023/01/16 03:49:24;;;;;;;5.53;3.90;;;4.10;99.90;;;;;;4968002;28;20401;-86
2023/01/16 03:51:54;;;;;;;8.55;4.70;;;4.10;99.90;;;;;;4945099;28;20089;-86
2023/01/16 03:54:40;;;;;;;5.93;4.25;;;4.10;99.90;;;;;;4968221;28;20047;-86
2023/01/16 03:57:21;;;;;;;8.95;4.35;;;4.20;99.90;;;;;;4967582;28;20061;-86
2023/01/16 03:59:49;;;;;;;6.18;4.38;;;4.20;99.90;;;;;;4967567;28;20089;-86
2023/01/16 04:02:46;;;;;;;7.97;4.45;;;4.20;99.90;;;;;;4967553;28;20082;-86
2023/01/16 04:05:29;;;;;;;6.57;4.55;;;4.20;99.90;;;;;;4965103;28;20233;-86
2023/01/16 04:08:10;;;;;;;6.35;4.90;;;4.20;99.90;;;;;;4967803;28;20046;-85
2023/01/16 04:10:41;;;;;;;7.55;4.85;;;4.40;99.90;;;;;;4939547;28;20043;-86
2023/01/16 04:13:09;;;;;;;8.57;5.22;;;5.60;99.90;;;;;;4959759;28;20051;-86
2023/01/16 04:15:40;;;;;;;7.88;5.47;;;4.20;99.90;;;;;;4968503;28;20640;-86
2023/01/16 04:18:06;;;;;;;8.50;5.40;;;4.20;99.90;;;;;;4969010;28;20054;-86
2023/01/16 04:20:33;;;;;;;8.43;5.82;;;4.20;99.90;;;;;;4970247;28;20061;-87
2023/01/16 04:22:59;;;;;;;8.80;6.32;;;4.00;99.90;;;;;;4968720;28;20045;-86
2023/01/16 04:25:25;;;;;;;10.18;6.38;;;4.30;99.90;;;;;;4952120;28;20490;-86
2023/01/16 04:27:50;;;;;;;8.88;6.80;;;4.60;99.90;;;;;;4967450;28;20541;-86
2023/01/16 04:30:19;;;;;;;7.82;6.38;;;4.30;99.90;;;;;;4950964;28;20509;-86
2023/01/16 04:32:44;;;;;;;9.18;7.00;;;4.30;99.90;;;;;;4967730;28;20047;-86
2023/01/16 04:35:12;;;;;;;10.55;6.68;;;4.10;99.90;;;;;;4984264;28;20055;-86
2023/01/16 04:37:41;;;;;;;11.95;8.07;;;4.30;99.90;;;;;;4985256;28;20210;-87
2023/01/16 04:40:08;;;;;;;13.10;8.23;;;4.30;99.90;;;;;;4950819;28;20051;-86
2023/01/16 04:42:35;;;;;;;11.88;8.20;;;4.30;99.90;;;;;;4962695;28;20669;-86
2023/01/16 04:45:02;;;;;;;10.38;7.35;;;4.30;99.90;;;;;;4968418;28;20050;-86
2023/01/16 04:47:28;;;;;;;14.90;9.45;;;4.30;99.90;;;;;;4967373;28;20043;-87
2023/01/16 04:49:53;;;;;;;13.27;8.93;;;4.30;99.90;;;;;;4965959;28;20042;-86
2023/01/16 04:52:19;;;;;;;13.68;10.38;;;4.30;99.90;;;;;;4980252;28;20058;-86
2023/01/16 04:54:44;;;;;;;15.27;10.23;;;3.60;99.90;;;;;;4965284;28;20054;-86
2023/01/16 04:57:10;;;;;;;15.27;9.43;;;4.30;99.90;;;;;;4966702;28;20148;-86
2023/01/16 04:59:35;;;;;;;15.60;10.05;;;4.20;99.90;;;;;;4973055;28;20046;-87
2023/01/16 05:02:01;;;;;;;13.68;9.50;;;4.30;99.90;;;;;;4957101;28;20045;-86
2023/01/16 05:04:30;;;;;;;15.88;10.00;;;4.10;99.90;;;;;;4966320;28;20367;-86
2023/01/16 05:06:55;;;;;;;14.40;10.02;;;5.50;99.90;;;;;;4964539;28;20058;-87
2023/01/16 05:09:21;;;;;;;14.77;9.63;;;4.00;99.90;;;;;;4966900;28;20046;-87
2023/01/16 05:11:46;;;;;;;14.40;9.70;;;4.00;99.90;;;;;;4969431;28;20507;-87
2023/01/16 05:14:12;;;;;;;15.00;10.20;;;3.90;99.90;;;;;;4971357;28;20046;-86
2023/01/16 05:16:45;;;;;;;13.55;9.18;;;3.80;99.90;;;;;;4970309;28;20054;-86
2023/01/16 05:19:10;;;;;;;;;;;3.30;99.90;;;;;;4953519;28;20773;-86
2023/01/16 05:21:36;;;;;;;16.98;9.10;;;3.60;99.90;;;;;;4973199;28;19929;-86
2023/01/16 05:24:02;;;;;;;14.20;9.05;;;3.50;99.90;;;;;;4987297;28;20051;-86
2023/01/16 05:26:28;;;;;;;14.18;9.25;;;3.50;99.90;;;;;;4969793;28;20058;-87
2023/01/16 05:28:53;;;;;;;19.63;9.35;;;3.40;99.90;;;;;;4974314;28;20054;-86
2023/01/16 05:31:19;;;;;;;13.48;9.10;;;3.30;99.90;;;;;;4972229;28;20390;-86
2023/01/16 05:33:48;;;;;;;15.43;8.48;;;3.20;99.90;;;;;;4972830;28;20133;-87
2023/01/16 05:36:14;;;;;;;15.25;8.43;;;2.10;99.90;;;;;;4973106;28;20060;-86
2023/01/16 05:38:39;;;;;;;12.60;8.07;;;4.00;99.90;;;;;;4973086;28;20408;-86
2023/01/16 05:41:05;;;;;;;16.40;8.65;;;3.10;99.90;;;;;;4990567;28;20377;-87
2023/01/16 05:43:31;;;;;;;12.15;7.63;;;3.10;99.90;;;;;;4970893;28;20038;-86
2023/01/16 05:45:57;;;;;;;13.20;7.70;;;3.00;99.90;;;;;;4965447;28;20101;-86
2023/01/16 05:48:26;;;;;;;14.68;7.70;;;2.90;99.90;;;;;;4987954;28;20050;-86
2023/01/16 05:50:54;;;;;;;14.35;8.43;;;3.00;99.90;;;;;;4973840;28;20043;-86
2023/01/16 05:53:20;;;;;;;13.73;8.15;;;2.40;99.90;;;;;;4989960;28;20038;-86
2023/01/16 05:55:47;;;;;;;14.60;7.78;;;2.90;99.90;;;;;;4972111;28;20491;-87
2023/01/16 05:58:14;;;;;;;13.35;7.93;;;3.80;99.90;;;;;;4972637;28;20142;-86
2023/01/16 06:00:41;;;;;;;12.43;7.00;;;3.00;99.90;;;;;;4973184;28;20405;-87
2023/01/16 06:03:07;;;;;;;11.68;7.68;;;3.20;99.90;;;;;;4971368;28;20181;-86
2023/01/16 06:05:33;;;;;;;12.23;7.13;;;3.20;99.90;;;;;;4970184;28;20046;-86
2023/01/16 06:07:59;;;;;;;13.10;7.63;;;3.20;99.90;;;;;;4967159;28;20382;-87
2023/01/16 06:10:26;;;;;;;12.75;7.28;;;3.20;99.90;;;;;;4972270;28;20050;-86
2023/01/16 06:12:54;;;;;;;11.43;6.50;;;3.00;99.90;;;;;;4972171;28;20042;-87
2023/01/16 06:15:20;;;;;;;10.18;6.53;;;3.30;99.90;;;;;;4972807;28;20061;-86
2023/01/16 06:17:46;;;;;;;10.32;6.75;;;3.80;99.90;;;;;;4971925;28;20456;-87
2023/01/16 06:20:12;;;;;;;10.88;6.32;;;3.10;99.90;;;;;;4990790;28;20047;-87
2023/01/16 06:22:38;;;;;;;8.15;5.55;;;3.10;99.90;;;;;;4972510;28;20054;-87
2023/01/16 06:25:04;;;;;;;11.60;6.43;;;3.20;99.90;;;;;;4952668;28;20876;-87
2023/01/16 06:27:32;;;;;;;8.88;6.32;;;3.20;99.90;;;;;;4986670;28;20042;-87
2023/01/16 06:30:00;;;;;;;8.63;5.90;;;3.20;99.90;;;;;;4966855;28;20059;-87
2023/01/16 06:32:26;;;;;;;9.32;6.00;;;2.60;99.90;;;;;;4984107;28;20038;-85
2023/01/16 06:34:54;;;;;;;8.88;5.80;;;3.10;99.90;;;;;;4971138;28;20748;-87
2023/01/16 06:37:20;;;;;;;11.32;5.85;;;3.20;99.90;;;;;;4985022;28;20061;-87
2023/01/16 06:39:45;;;;;;;7.78;5.68;;;3.10;99.90;;;;;;4971408;28;20042;-87
2023/01/16 06:42:11;;;;;;;10.90;5.95;;;3.10;99.90;;;;;;4982961;28;20061;-86
2023/01/16 06:44:36;;;;;;;11.07;5.47;;;3.10;99.90;;;;;;4953056;28;20078;-87
2023/01/16 06:47:02;;;;;;;9.98;5.50;;;3.10;99.90;;;;;;4965295;28;20081;-88
2023/01/16 06:49:31;;;;;;;10.82;4.95;;;2.60;99.90;;;;;;4978447;28;20070;-88
2023/01/16 06:51:56;;;;;;;13.65;5.95;;;3.60;99.90;;;;;;4971279;28;20092;-87
2023/01/16 06:54:29;;;;;;;11.27;5.20;;;3.20;99.90;;;;;;4984456;28;20038;-89
2023/01/16 06:56:55;;;;;;;7.60;5.25;;;4.20;99.90;;;;;;4948805;29;20469;-87
2023/01/16 06:59:20;;;;;;;12.60;5.53;;;3.20;99.90;;;;;;4951292;29;20055;-87
2023/01/16 07:01:46;;;;;;;9.00;4.68;;;3.20;99.90;;;;;;4950035;29;20075;-86
2023/01/16 07:04:15;;;;;;;7.28;4.90;;;3.10;99.90;;;;;;4950914;29;20082;-87
2023/01/16 07:06:43;;;;;;;9.40;4.78;;;3.10;99.90;;;;;;4952003;28;20043;-88
2023/01/16 07:09:12;;;;;;;8.10;5.03;;;2.80;99.90;;;;;;4950968;28;20490;-87
2023/01/16 07:11:37;;;;;;;9.73;5.35;;;4.70;99.90;;;;;;4952330;28;20065;-87
2023/01/16 07:22:50;;;;;;;9.13;4.38;;;3.00;99.90;;;;;;4970185;28;20141;-88
2023/01/16 07:25:17;;;;;;;7.70;5.05;;;3.00;99.90;;;;;;4961117;28;20046;-88
2023/01/16 07:27:45;;;;;;;8.32;4.90;;;3.00;99.90;;;;;;4970160;28;20395;-86
2023/01/16 07:30:11;;;;;;;6.97;4.75;;;3.00;99.90;;;;;;4965962;28;20422;-85
2023/01/16 07:32:37;;;;;;;7.28;5.05;;;3.00;99.90;;;;;;4968318;28;20105;-84
2023/01/16 07:35:07;;;;;;;10.25;5.20;;;3.00;99.90;;;;;;4959487;28;20520;-85
2023/01/16 07:37:33;;;;;;;8.60;5.45;;;3.10;99.90;;;;;;4960166;28;20054;-86
2023/01/16 07:39:58;;;;;;;8.75;5.15;;;4.20;99.90;;;;;;4959575;28;20043;-85
2023/01/16 07:42:24;;;;;;;10.45;5.95;;;3.10;99.90;;;;;;4965768;28;20258;-86
2023/01/16 07:44:49;;;;;;;11.07;5.95;;;3.10;99.90;;;;;;4967783;28;20125;-87
2023/01/16 07:47:15;;;;;;;10.63;5.75;;;3.10;99.90;;;;;;4959716;28;20047;-86
2023/01/16 07:49:40;;;;;;;10.15;5.65;;;3.10;99.90;;;;;;4954247;28;20126;-85
2023/01/16 07:52:06;;;;;;;11.43;5.65;;;3.10;99.90;;;;;;4964389;28;20047;-89
2023/01/16 07:54:35;;;;;;;11.75;6.18;;;4.50;99.90;;;;;;4968365;28;20042;-86
2023/01/16 07:57:01;;;;;;;9.57;5.65;;;4.60;99.90;;;;;;4956103;28;20493;-88
2023/01/16 07:59:26;;;;;;;8.85;6.07;;;3.60;99.90;;;;;;4967789;28;20035;-89
2023/01/16 08:01:52;;;;;;;9.65;5.60;;;3.20;99.90;;;;;;4957803;28;20174;-89
2023/01/16 08:04:18;;;;;;;9.90;5.95;;;3.20;99.90;;;;;;4954566;28;20133;-90
2023/01/16 08:06:44;;;;;;;11.73;6.93;;;3.10;99.90;;;;;;4974432;28;20641;-88
2023/01/16 08:09:12;;;;;;;11.88;6.32;;;3.20;99.90;;;;;;4956956;28;20090;-88
2023/01/16 08:11:38;;;;;;;9.23;5.70;;;3.30;99.90;;;;;;4950470;28;20050;-90
2023/01/16 08:14:06;;;;;;;14.15;6.45;;;3.30;99.90;;;;;;4950399;28;20185;-88
2023/01/16 08:16:32;;;;;;;10.55;6.07;;;3.30;99.90;;;;;;4968975;28;20054;-89
2023/01/16 08:18:57;;;;;;;10.18;5.25;;;3.30;99.90;;;;;;4952204;28;20399;-89
2023/01/16 08:21:23;;;;;;;9.60;6.32;;;3.40;99.90;;;;;;4969064;28;20043;-88
2023/01/16 08:23:49;;;;;;;9.23;5.80;;;3.70;99.90;;;;;;4958803;28;20038;-88
2023/01/16 08:26:15;;;;;;;11.50;5.78;;;3.40;99.90;;;;;;4966528;28;20047;-88
2023/01/16 08:28:41;;;;;;;9.35;6.13;;;4.40;99.90;;;;;;4952553;28;20395;-89
2023/01/16 08:31:11;;;;;;;10.32;5.40;;;4.30;99.90;;;;;;4972457;28;20046;-91
2023/01/16 08:33:38;;;;;;;7.63;5.25;;;3.80;99.90;;;;;;4961981;28;20497;-88
2023/01/16 08:36:05;;;;;;;8.85;5.20;;;3.30;99.90;;;;;;4943380;28;20038;-89
2023/01/16 08:38:30;;;;;;;7.65;5.20;;;3.60;99.90;;;;;;4944298;28;20043;-89
2023/01/16 08:40:56;;;;;;;13.52;5.00;;;3.60;99.90;;;;;;4936729;28;20061;-88
2023/01/16 08:51:58;;;;;;;6.88;4.60;;;3.70;99.90;;;;;;4976590;28;20050;-90
2023/01/16 08:54:24;;;;;;;7.55;3.83;;;3.70;99.90;;;;;;4974093;28;20038;-86
2023/01/16 08:56:49;;;;;;;6.03;4.10;;;3.80;99.90;;;;;;4969909;28;20051;-89
2023/01/16 08:59:15;;;;;;;7.57;4.07;;;3.80;99.90;;;;;;4942009;28;20047;-90
2023/01/16 09:01:41;;;;;;;5.68;4.05;;;3.80;99.90;;;;;;4942186;28;20054;-89
2023/01/16 09:04:08;;;;;;;8.95;4.50;;;3.80;99.90;;;;;;4957497;28;20098;-89
2023/01/16 09:06:35;;;;;;;7.43;4.05;;;3.90;99.90;;;;;;4960940;28;20073;-90
2023/01/16 09:09:06;;;;;;;9.65;4.32;;;3.90;99.90;;;;;;4970606;28;20054;-89
2023/01/16 09:14:20;;;;;;;8.48;4.22;;;3.90;99.90;;;;;;4970605;28;20077;-88
2023/01/16 09:16:46;;;;;;;6.53;3.83;;;3.90;99.90;;;;;;4952906;28;20074;-86
2023/01/16 09:19:12;;;;;;;6.18;3.67;;;3.90;99.90;;;;;;4944013;28;20034;-89
2023/01/16 09:21:38;;;;;;;5.55;4.10;;;3.90;99.90;;;;;;4965926;28;20555;-86
2023/01/16 09:24:04;;;;;;;4.90;4.30;;;3.90;99.90;;;;;;4979449;28;20065;-86
2023/01/16 09:26:30;;;;;;;7.00;3.88;;;4.00;99.90;;;;;;4939521;28;20050;-87
2023/01/16 09:28:56;;;;;;;7.18;4.10;;;3.90;99.90;;;;;;4957570;28;20113;-87
2023/01/16 09:31:21;;;;;;;6.93;4.45;;;4.00;99.90;;;;;;4955858;28;20042;-87
2023/01/16 09:33:48;;;;;;;6.03;4.03;;;3.70;99.90;;;;;;4967880;28;20102;-86
2023/01/16 09:36:14;;;;;;;8.15;3.72;;;4.20;99.90;;;;;;4966525;28;20047;-86
2023/01/16 09:38:39;;;;;;;7.65;4.60;;;4.00;99.90;;;;;;4988591;28;20034;-86
2023/01/16 09:41:06;;;;;;;6.47;4.38;;;3.60;99.90;;;;;;4958878;28;20074;-87
2023/01/16 09:43:38;;;;;;;5.63;4.35;;;5.00;99.90;;;;;;4958743;28;20089;-88
2023/01/16 09:46:29;;;;;;;5.10;3.35;;;4.00;99.90;;;;;;4973545;28;20494;-87
2023/01/16 09:49:03;;;;;;;8.57;3.30;;;4.00;99.90;;;;;;4963558;28;20042;-86
2023/01/16 09:58:34;;;;;;;7.13;3.72;;;4.00;99.90;;;;;;4973595;28;20050;-86
2023/01/16 10:00:16;;;;;;;7.47;3.75;;;4.10;99.90;;;;;;4974701;28;20065;-87
2023/01/16 10:02:43;;;;;;;5.15;3.63;;;4.10;99.90;;;;;;4973279;28;20129;-88
2023/01/16 10:05:11;;;;;;;5.13;2.97;;;5.40;99.90;;;;;;4967035;28;20578;-88
2023/01/16 10:08:08;;;;;;;4.30;2.88;;;4.00;99.90;;;;;;4974678;28;20100;-92
2023/01/16 10:10:54;;;;;;;2.42;2.22;;;4.20;99.90;;;;;;4974617;28;20400;-86
2023/01/16 10:13:36;;;;;;;5.18;2.60;;;4.20;99.90;;;;;;4973257;28;20057;-85
2023/01/16 10:16:32;;;;;;;2.97;2.10;;;4.20;99.90;;;;;;4970811;28;20057;-86
2023/01/16 10:19:28;;;;;;;5.28;2.08;;;4.20;99.90;;;;;;4953713;28;20038;-90
2023/01/16 10:22:18;;;;;;;5.13;2.55;;;4.20;99.90;;;;;;4924390;28;20063;-86
2023/01/16 10:25:18;;;;;;;4.10;2.55;;;4.20;99.90;;;;;;4965777;28;20049;-85
2023/01/16 10:28:09;;;;;;;4.60;1.88;;;4.10;99.90;;;;;;4988087;28;20038;-85
2023/01/16 10:30:50;;;;;;;4.00;2.40;;;4.10;99.90;;;;;;4968226;28;20160;-86
2023/01/16 10:33:50;;;;;;;4.53;1.95;;;4.00;99.90;;;;;;4973040;28;20074;-86
2023/01/16 10:36:18;;;;;;;3.42;1.85;;;4.00;99.90;;;;;;4959470;28;20073;-85
2023/01/16 10:38:51;;;;;;;3.47;2.13;;;5.90;99.90;;;;;;4981628;28;20065;-84
2023/01/16 10:50:17;;;;;;;3.75;2.40;;;;;;;;;;4990342;28;20054;-84
2023/01/16 10:52:44;;;;;;;2.20;2.00;;;;;;;;;;4972594;28;20074;-87
2023/01/16 10:55:10;;;;;;;2.83;2.15;;;;;;;;;;4972222;28;20046;-86
2023/01/16 10:57:41;;;;;;;2.67;2.17;;;;;;;;;;4965283;28;20058;-86
2023/01/16 11:00:13;;;;;;;2.60;2.40;;;;;;;;;;4954136;28;21748;-85
2023/01/16 11:02:41;;;;;;;2.78;2.28;;;;;;;;;;4970517;28;20053;-85
2023/01/16 11:05:23;;;;;;;2.72;2.38;;;;;;;;;;4990109;28;20050;-87
2023/01/16 11:07:51;;;;;;;4.25;2.42;;;;;;;;;;4956655;28;20081;-87
2023/01/16 11:10:17;;;;;;;4.03;2.58;;;;;;;;;;4970312;28;20047;-87
2023/01/16 11:18:30;;;;;;;2.65;2.13;;;;;;;;;;4971919;28;20054;-88
2023/01/16 11:21:02;;;;;;;3.72;2.40;;;;;;;;;;4972938;28;20046;-88
2023/01/16 11:23:36;;;;;;;2.40;2.20;;;;;;;;;;4967247;28;20053;-87
2023/01/16 11:26:02;;;;;;;2.72;2.35;;;;;;;;;;4955497;28;20053;-86
2023/01/16 11:28:30;;;;;;;2.70;2.35;;;;;;;;;;4985355;28;20512;-88
2023/01/16 11:31:03;;;;;;;2.65;2.13;;;;;;;;;;5119576;27;1267078;-86
2023/01/16 11:33:38;;;;;;;2.75;2.30;;;;;;;;;;5127989;27;20054;-86
2023/01/16 11:36:05;;;;;;;3.15;2.33;;;;;;;;;;5129047;27;20399;-86
2023/01/16 11:38:34;;;;;;;3.67;2.40;;;;;;;;;;5128119;27;20449;-86
2023/01/16 11:41:03;;;;;;;4.68;2.38;;;;;;;;;;5110596;27;20100;-86
2023/01/16 11:46:33;;;;;;;5.53;2.40;;;;;;;;;;5117867;27;20350;-87
2023/01/16 11:49:00;;;;;;;3.20;2.42;;;;;;;;;;5128198;27;20035;-87
2023/01/16 11:51:31;;;;;;;5.63;2.50;;;;;;;;;;5127660;27;20047;-85
2023/01/16 11:53:58;;;;;;;4.95;2.45;;;;;;;;;;5119109;27;20126;-86
2023/01/16 11:56:43;;;;;;;5.68;2.70;;;;;;;;;;5112158;27;20103;-87
2023/01/16 11:59:15;;;;;;;5.70;2.60;;;;;;;;;;5123682;27;20053;-85
2023/01/16 12:02:15;;;;;;;2.80;2.20;;;;;;;;;;5127255;27;20042;-86
2023/01/16 12:05:53;;;;;;;3.70;2.53;;;;;;;;;;5109614;27;20087;-87
2023/01/16 12:07:37;;;;;;;2.22;2.03;;;;;;;;;;5126376;27;20093;-89
2023/01/16 12:10:11;;;;;;;3.80;2.90;;;;;;;;;;5124015;27;20508;-88
2023/01/16 12:15:39;;;;;;;4.57;2.90;;;;;;;;;;5128027;27;20104;-86
2023/01/16 12:18:11;;;;;;;2.83;2.40;;;;;;;;;;5124213;27;20396;-88
2023/01/16 12:20:37;;;;;;;;;;;;;;;;;;5111792;27;20039;-87
2023/01/16 12:23:11;;;;;;;3.33;2.97;;;;;;;;;;5125761;27;20239;-88
2023/01/16 12:25:43;;;;;;;4.15;2.80;;;;;;;;;;5127638;27;20066;-88
2023/01/16 12:28:12;;;;;;;3.35;2.42;;;;;;;;;;5126641;27;20043;-89
2023/01/16 12:30:39;;;;;;;6.53;2.88;;;;;;;;;;5126865;27;20062;-88
2023/01/16 12:33:21;;;;;;;3.58;2.20;;;;;;;;;;5109248;27;20940;-88
2023/01/16 12:35:54;;;;;;;3.10;2.60;;;;;;;;;;5127118;27;20164;-87
2023/01/16 12:38:26;;;;;;;3.22;1.90;;;;;;;;;;5090924;28;20055;-88
2023/01/16 12:43:54;;;;;;;3.58;2.20;;;;;;;;;;5091479;28;20134;-87
2023/01/16 12:46:39;;;;;;;3.65;2.20;;;4.00;99.90;;;;;;5075239;28;20138;-89
2023/01/16 12:49:16;;;;;;;2.60;2.22;;;4.10;99.90;;;;;;5087630;27;20039;-88
2023/01/16 12:52:11;;;;;;;4.85;2.50;;;4.70;99.90;;;;;;5105849;27;20031;-88
2023/01/16 12:54:57;;;;;;;4.50;2.45;;;4.60;99.90;;;;;;5081818;27;20047;-87
2023/01/16 12:57:56;;;;;;;4.93;2.30;;;4.80;99.90;;;;;;5128087;27;20043;-88
2023/01/16 13:00:31;;;;;;;4.97;2.63;;;4.40;99.90;;;;;;5104468;27;20103;-88
2023/01/16 13:03:26;;;;;;;3.13;2.28;;;4.70;99.90;;;;;;5088756;28;20040;-88
2023/01/16 13:05:55;;;;;;;3.00;2.40;;;4.20;99.90;;;;;;5101483;27;20042;-88
2023/01/16 13:08:33;;;;;;;3.97;2.70;;;4.00;99.90;;;;;;5100755;28;20405;-87
2023/01/16 13:14:06;;;;;;;7.18;2.63;;;4.70;99.90;;;;;;5102426;28;20051;-88
2023/01/16 13:16:35;;;;;;;3.40;2.50;;;4.60;99.90;;;;;;5091032;28;20047;-89
2023/01/16 13:19:14;;;;;;;2.63;2.38;;;4.10;99.90;;;;;;5100028;27;20054;-88
2023/01/16 13:22:06;;;;;;;2.95;2.55;;;4.90;99.90;;;;;;5094812;28;20379;-88
2023/01/16 13:24:49;;;;;;;2.72;2.53;;;4.60;99.90;;;;;;5084154;28;20055;-86
2023/01/16 13:27:20;;;;;;;3.40;2.22;;;4.70;99.90;;;;;;5089633;27;20039;-87
2023/01/16 13:29:53;;;;;;;3.28;2.10;;;4.40;99.90;;;;;;5103139;27;20085;-87
2023/01/16 13:32:41;;;;;;;3.05;2.40;;;4.50;99.90;;;;;;5092418;28;20052;-87
2023/01/16 13:35:19;;;;;;;3.13;2.53;;;4.80;99.90;;;;;;5092486;28;20051;-87
2023/01/16 13:38:23;;;;;;;4.03;2.50;;;3.80;99.90;;;;;;5075008;28;20047;-87
2023/01/16 13:41:30;;;;;;;3.88;2.38;;;4.70;99.90;;;;;;5078609;27;20055;-88
2023/01/16 13:46:46;;;;;;;2.10;1.70;;;4.60;99.90;;;;;;5037994;28;20064;-87
2023/01/16 13:49:20;;;;;;;2.63;2.35;;;4.60;99.90;;;;;;5061591;28;20135;-88
2023/01/16 13:51:50;;;;;;;2.88;2.03;;;4.80;99.90;;;;;;5090885;28;20527;-88
2023/01/16 13:54:49;;;;;;;3.80;2.30;;;3.80;99.90;;;;;;5080541;27;20130;-86
2023/01/16 13:57:21;;;;;;;2.97;2.13;;;4.80;99.90;;;;;;5078646;27;20063;-85
2023/01/16 13:59:57;;;;;;;2.85;2.50;;;4.80;99.90;;;;;;5110404;27;20039;-86
2023/01/16 14:02:35;;;;;;;2.65;2.00;;;4.90;99.90;;;;;;5095161;27;20047;-86
2023/01/16 14:05:06;;;;;;;2.10;1.90;;;5.10;99.90;;;;;;5129463;27;20043;-86
2023/01/16 14:10:45;;;;;;;6.18;1.83;;;4.90;99.90;;;;;;5111202;27;20055;-87
2023/01/16 14:13:26;;;;;;;3.72;1.90;;;4.90;99.90;;;;;;5107670;27;20481;-87
2023/01/16 14:19:10;;;;;;;2.22;1.60;;;4.90;99.90;;;;;;5091303;28;20342;-86
2023/01/16 14:21:38;;;;;;;1.95;1.48;;;4.90;99.90;;;;;;5072908;28;20050;-87
2023/01/16 14:24:24;;;;;;;1.58;1.42;;;4.90;99.90;;;;;;5090677;28;20493;-86
2023/01/16 14:26:57;;;;;;;2.10;1.52;;;4.90;99.90;;;;;;5117773;27;20043;-87
2023/01/16 14:29:52;;;;;;;1.50;1.30;;;5.00;99.90;;;;;;5106128;28;20122;-87
2023/01/16 14:32:20;;;;;;;3.00;1.30;;;5.00;99.90;;;;;;5090865;28;20048;-89
2023/01/16 14:34:56;;;;;;;2.00;1.70;;;5.00;99.90;;;;;;5073391;28;20055;-88
2023/01/16 14:37:54;;;;;;;2.55;1.58;;;5.00;99.90;;;;;;5090432;28;20055;-87